createdAt,value
2022-12-28T00:01:53.709Z,6.21
2022-12-28T00:04:25.676Z,6.18
2022-12-28T00:06:57.592Z,6.28
2022-12-28T00:09:29.804Z,6.23
2022-12-28T00:12:01.754Z,6.18
2022-12-28T00:14:33.714Z,6.25
2022-12-28T00:17:05.709Z,6.11
2022-12-28T00:19:37.891Z,6.09
2022-12-28T00:22:09.893Z,6.21
2022-12-28T00:24:42.112Z,6.19
2022-12-28T00:27:14.073Z,6.21
2022-12-28T00:29:46.101Z,6.14
2022-12-28T00:32:18.058Z,6.09
2022-12-28T00:34:50.150Z,6.24
2022-12-28T00:37:22.084Z,6.29
2022-12-28T00:39:54.042Z,6.27
2022-12-28T00:42:26.001Z,6.19
2022-12-28T00:44:58.012Z,6.22
2022-12-28T00:47:29.939Z,6.36
2022-12-28T00:50:01.889Z,6.31
2022-12-28T00:52:33.854Z,6.20
2022-12-28T00:55:06.207Z,6.29
2022-12-28T00:57:40.992Z,6.47
2022-12-28T01:00:14.322Z,6.36
2022-12-28T01:02:46.343Z,6.41
2022-12-28T01:05:18.613Z,6.39
2022-12-28T01:07:50.767Z,6.39
2022-12-28T01:10:22.871Z,6.32
2022-12-28T01:12:55.328Z,6.38
2022-12-28T01:15:27.352Z,6.33
2022-12-28T01:17:59.327Z,6.42
2022-12-28T01:20:31.518Z,6.33
2022-12-28T01:23:03.537Z,6.28
2022-12-28T01:25:35.664Z,6.44
2022-12-28T01:28:07.639Z,6.49
2022-12-28T01:30:39.629Z,6.52
2022-12-28T01:33:11.549Z,6.57
2022-12-28T01:35:43.510Z,6.59
2022-12-28T01:38:15.471Z,6.68
2022-12-28T01:40:47.425Z,6.59
2022-12-28T01:43:29.862Z,6.47
2022-12-28T01:46:03.165Z,6.44
2022-12-28T01:48:37.101Z,6.33
2022-12-28T01:51:09.252Z,6.32
2022-12-28T01:53:41.385Z,6.35
2022-12-28T01:56:13.457Z,6.31
2022-12-28T01:58:46.539Z,6.42
2022-12-28T02:01:18.814Z,6.35
2022-12-28T02:03:50.887Z,6.39
2022-12-28T02:06:23.077Z,6.25
2022-12-28T02:09:19.019Z,6.27
2022-12-28T02:11:51.609Z,6.23
2022-12-28T02:14:23.626Z,6.17
2022-12-28T02:16:55.996Z,6.16
2022-12-28T02:19:46.115Z,6.01
2022-12-28T02:22:44.832Z,6.09
2022-12-28T02:26:03.207Z,6.06
2022-12-28T02:29:13.046Z,6.02
2022-12-28T02:32:11.077Z,6.01
2022-12-28T02:35:03.862Z,5.98
2022-12-28T02:38:05.612Z,5.81
2022-12-28T02:41:01.033Z,5.79
2022-12-28T02:43:34.559Z,5.66
2022-12-28T02:46:48.830Z,5.57
2022-12-28T02:49:46.843Z,5.46
2022-12-28T02:52:43.141Z,5.45
2022-12-28T02:56:07.643Z,5.38
2022-12-28T02:59:06.605Z,5.45
2022-12-28T03:02:24.991Z,5.48
2022-12-28T03:05:12.049Z,5.52
2022-12-28T03:08:20.626Z,5.55
2022-12-28T03:11:09.790Z,5.52
2022-12-28T03:14:03.952Z,5.57
2022-12-28T03:17:04.176Z,5.63
2022-12-28T03:20:06.107Z,5.58
2022-12-28T03:22:58.887Z,5.51
2022-12-28T03:25:58.449Z,5.50
2022-12-28T03:28:51.557Z,5.50
2022-12-28T03:31:28.390Z,5.53
2022-12-28T03:34:07.658Z,5.44
2022-12-28T03:37:02.700Z,5.43
2022-12-28T03:39:51.393Z,5.33
2022-12-28T03:42:51.595Z,5.39
2022-12-28T03:45:45.700Z,5.40
2022-12-28T03:48:20.057Z,5.44
2022-12-28T03:50:54.023Z,5.41
2022-12-28T03:53:46.143Z,5.43
2022-12-28T03:56:21.549Z,5.52
2022-12-28T03:58:54.322Z,5.53
2022-12-28T04:01:26.577Z,5.49
2022-12-28T04:03:58.641Z,5.61
2022-12-28T04:06:30.604Z,5.51
2022-12-28T04:09:03.855Z,5.48
2022-12-28T04:11:35.801Z,5.55
2022-12-28T04:14:10.872Z,5.51
2022-12-28T04:16:43.370Z,5.56
2022-12-28T04:19:15.321Z,5.57
2022-12-28T04:21:47.347Z,5.53
2022-12-28T04:24:19.396Z,5.53
2022-12-28T04:26:51.414Z,5.52
2022-12-28T04:29:23.346Z,5.60
2022-12-28T04:31:55.358Z,5.56
2022-12-28T04:34:27.308Z,5.52
2022-12-28T04:36:59.414Z,5.49
2022-12-28T04:39:55.931Z,5.61
2022-12-28T04:42:23.419Z,5.64
2022-12-28T04:44:55.470Z,5.63
2022-12-28T04:47:28.487Z,5.61
2022-12-28T04:50:00.419Z,5.62
2022-12-28T04:52:34.181Z,5.64
2022-12-28T04:55:06.572Z,5.71
2022-12-28T04:57:38.500Z,5.88
2022-12-28T05:00:11.863Z,5.93
2022-12-28T05:02:47.133Z,5.86
2022-12-28T05:05:19.088Z,5.84
2022-12-28T05:07:51.074Z,5.92
2022-12-28T05:10:23.020Z,6.02
2022-12-28T05:12:56.476Z,6.04
2022-12-28T05:15:28.388Z,6.09
2022-12-28T05:18:00.425Z,5.93
2022-12-28T05:20:32.386Z,5.92
2022-12-28T05:23:04.369Z,6.02
2022-12-28T05:25:36.355Z,6.07
2022-12-28T05:28:08.295Z,6.12
2022-12-28T05:30:40.258Z,6.11
2022-12-28T05:33:12.243Z,6.01
2022-12-28T05:35:45.499Z,6.06
2022-12-28T05:38:17.564Z,6.06
2022-12-28T05:40:49.681Z,6.07
2022-12-28T05:43:21.693Z,6.11
2022-12-28T05:45:53.619Z,6.17
2022-12-28T05:48:25.555Z,6.26
2022-12-28T05:51:04.513Z,6.28
2022-12-28T05:53:37.421Z,6.31
2022-12-28T05:56:17.076Z,6.18
2022-12-28T05:59:01.571Z,6.08
2022-12-28T06:01:38.028Z,6.22
2022-12-28T06:04:19.429Z,6.21
2022-12-28T06:06:51.401Z,6.32
2022-12-28T06:09:23.342Z,6.25
2022-12-28T06:11:55.265Z,6.28
2022-12-28T06:14:27.263Z,6.34
2022-12-28T06:16:59.353Z,6.24
2022-12-28T06:19:31.673Z,6.29
2022-12-28T06:22:03.626Z,6.24
2022-12-28T06:24:35.663Z,6.32
2022-12-28T06:27:07.605Z,6.29
2022-12-28T06:29:39.583Z,6.34
2022-12-28T06:32:11.607Z,6.39
2022-12-28T06:34:43.614Z,6.31
2022-12-28T06:37:15.649Z,6.41
2022-12-28T06:39:47.612Z,6.46
2022-12-28T06:42:19.589Z,6.52
2022-12-28T06:44:51.527Z,6.62
2022-12-28T06:47:23.542Z,6.63
2022-12-28T06:49:56.009Z,6.57
2022-12-28T06:52:27.951Z,6.49
2022-12-28T06:54:59.990Z,6.68
2022-12-28T06:57:31.945Z,6.71
2022-12-28T07:00:05.307Z,6.79
2022-12-28T07:02:37.391Z,6.82
2022-12-28T07:05:09.681Z,6.91
2022-12-28T07:07:45.565Z,6.89
2022-12-28T07:10:17.521Z,6.90
2022-12-28T07:12:49.605Z,6.93
2022-12-28T07:15:21.573Z,6.82
2022-12-28T07:17:53.530Z,6.88
2022-12-28T07:20:25.550Z,6.98
2022-12-28T07:22:57.551Z,7.00
2022-12-28T07:25:30.666Z,7.00
2022-12-28T07:28:02.665Z,6.94
2022-12-28T07:30:34.706Z,7.00
2022-12-28T07:33:06.669Z,7.05
2022-12-28T07:35:38.673Z,7.09
2022-12-28T07:38:10.590Z,7.14
2022-12-28T07:40:42.630Z,7.14
2022-12-28T07:43:14.651Z,7.16
2022-12-28T07:45:46.689Z,7.25
2022-12-28T07:48:18.741Z,7.39
2022-12-28T07:50:51.788Z,7.37
2022-12-28T07:53:23.796Z,7.35
2022-12-28T07:56:00.405Z,7.50
2022-12-28T07:58:32.552Z,7.54
2022-12-28T08:01:13.823Z,7.51
2022-12-28T08:03:46.314Z,7.46
2022-12-28T08:06:23.143Z,7.46
2022-12-28T08:08:59.929Z,7.57
2022-12-28T08:11:37.238Z,7.57
2022-12-28T08:14:10.261Z,7.58
2022-12-28T08:16:44.615Z,7.66
2022-12-28T08:19:16.550Z,7.62
2022-12-28T08:21:48.775Z,7.63
2022-12-28T08:24:21.202Z,7.68
2022-12-28T08:26:53.444Z,7.69
2022-12-28T08:29:25.571Z,7.75
2022-12-28T08:31:57.604Z,7.71
2022-12-28T08:34:29.576Z,7.82
2022-12-28T08:37:01.547Z,7.99
2022-12-28T08:39:33.615Z,7.97
2022-12-28T08:42:05.682Z,7.88
2022-12-28T08:44:37.775Z,8.03
2022-12-28T08:47:09.790Z,8.02
2022-12-28T08:49:44.509Z,7.98
2022-12-28T08:52:16.532Z,8.05
2022-12-28T08:54:48.528Z,8.01
2022-12-28T08:57:20.541Z,7.91
2022-12-28T08:59:52.507Z,7.99
2022-12-28T09:02:24.696Z,8.03
2022-12-28T09:04:56.742Z,8.09
2022-12-28T09:07:28.781Z,7.98
2022-12-28T09:10:00.762Z,8.07
2022-12-28T09:12:32.775Z,8.05
2022-12-28T09:15:05.435Z,8.16
2022-12-28T09:17:37.936Z,8.26
2022-12-28T09:20:10.837Z,8.26
2022-12-28T09:22:42.821Z,8.26
2022-12-28T09:25:14.907Z,8.46
2022-12-28T09:27:51.367Z,8.41
2022-12-28T09:30:26.571Z,8.48
2022-12-28T09:33:16.818Z,8.47
2022-12-28T09:35:48.737Z,8.50
2022-12-28T09:38:21.489Z,8.52
2022-12-28T09:40:53.535Z,8.57
2022-12-28T09:43:26.828Z,8.58
2022-12-28T09:45:58.965Z,8.63
2022-12-28T09:48:31.216Z,8.62
2022-12-28T09:51:04.833Z,8.65
2022-12-28T09:53:37.926Z,8.67
2022-12-28T09:56:35.390Z,8.86
2022-12-28T09:59:11.108Z,8.77
2022-12-28T10:01:44.991Z,8.78
2022-12-28T10:04:17.153Z,8.72
2022-12-28T10:06:49.395Z,8.71
2022-12-28T10:09:31.448Z,8.77
2022-12-28T10:12:24.710Z,8.80
2022-12-28T10:14:57.723Z,8.85
2022-12-28T10:17:30.595Z,8.78
2022-12-28T10:20:02.805Z,8.82
2022-12-28T10:22:44.889Z,8.81
2022-12-28T10:25:25.331Z,9.02
2022-12-28T10:27:58.372Z,9.02
2022-12-28T10:30:30.506Z,8.86
2022-12-28T10:33:03.715Z,8.83
2022-12-28T10:35:42.572Z,8.80
2022-12-28T10:38:26.380Z,8.65
2022-12-28T10:41:07.495Z,8.62
2022-12-28T10:44:03.445Z,8.74
2022-12-28T10:46:52.892Z,8.72
2022-12-28T10:49:27.102Z,8.74
2022-12-28T10:52:17.565Z,8.79
2022-12-28T10:55:07.356Z,8.78
2022-12-28T10:58:03.006Z,8.78
2022-12-28T11:00:32.565Z,8.74
2022-12-28T11:03:19.568Z,8.68
2022-12-28T11:06:28.152Z,8.82
2022-12-28T11:09:16.906Z,8.88
2022-12-28T11:11:52.805Z,8.92
2022-12-28T11:14:36.253Z,8.95
2022-12-28T11:17:29.148Z,8.97
2022-12-28T11:20:13.349Z,8.93
2022-12-28T11:22:47.040Z,9.01
2022-12-28T11:25:22.204Z,9.02
2022-12-28T11:27:54.433Z,9.01
2022-12-28T11:30:26.639Z,9.07
2022-12-28T11:33:01.565Z,9.13
2022-12-28T11:35:39.057Z,9.22
2022-12-28T11:38:38.935Z,9.11
2022-12-28T11:41:36.762Z,9.20
2022-12-28T11:44:44.399Z,9.16
2022-12-28T11:47:16.399Z,9.00
2022-12-28T11:49:48.989Z,8.98
2022-12-28T11:52:34.321Z,9.00
2022-12-28T11:55:27.094Z,9.10
2022-12-28T11:58:42.254Z,9.18
2022-12-28T12:01:29.725Z,9.16
2022-12-28T12:04:01.881Z,9.18
2022-12-28T12:06:47.138Z,9.31
2022-12-28T12:09:22.150Z,9.26
2022-12-28T12:12:23.688Z,9.34
2022-12-28T12:15:04.644Z,9.41
2022-12-28T12:17:55.828Z,9.29
2022-12-28T12:21:03.501Z,9.21
2022-12-28T12:23:52.658Z,9.20
2022-12-28T12:26:51.001Z,9.29
2022-12-28T12:29:47.635Z,9.30
2022-12-28T12:32:44.255Z,9.41
2022-12-28T12:35:20.745Z,9.40
2022-12-28T12:37:56.893Z,9.49
2022-12-28T12:40:53.424Z,9.44
2022-12-28T12:43:40.380Z,9.45
2022-12-28T12:47:05.857Z,9.33
2022-12-28T12:49:59.270Z,9.31
2022-12-28T12:52:54.752Z,9.36
2022-12-28T12:55:41.568Z,9.33
2022-12-28T12:58:24.373Z,9.34
2022-12-28T13:01:28.188Z,9.33
2022-12-28T13:04:20.972Z,9.38
2022-12-28T13:06:59.349Z,9.39
2022-12-28T13:09:34.502Z,9.40
2022-12-28T13:12:16.197Z,9.41
2022-12-28T13:14:56.270Z,9.26
2022-12-28T13:17:29.691Z,9.18
2022-12-28T13:20:22.072Z,9.15
2022-12-28T13:22:54.968Z,9.22
2022-12-28T13:25:34.657Z,9.20
2022-12-28T13:28:06.662Z,9.31
2022-12-28T13:30:38.791Z,9.25
2022-12-28T13:33:21.920Z,9.17
2022-12-28T13:36:12.333Z,9.10
2022-12-28T13:38:44.228Z,9.19
2022-12-28T13:41:26.156Z,9.19
2022-12-28T13:44:28.793Z,9.14
2022-12-28T13:47:36.582Z,9.04
2022-12-28T13:50:14.409Z,9.11
2022-12-28T13:52:55.699Z,9.12
2022-12-28T13:55:42.724Z,9.15
2022-12-28T13:58:24.872Z,9.20
2022-12-28T14:00:59.202Z,9.16
2022-12-28T14:03:39.343Z,9.14
2022-12-28T14:06:16.335Z,9.16
2022-12-28T14:08:49.085Z,9.09
2022-12-28T14:11:21.691Z,9.16
2022-12-28T14:13:55.260Z,9.19
2022-12-28T14:16:27.489Z,9.21
2022-12-28T14:19:00.832Z,9.06
2022-12-28T14:21:44.244Z,9.00
2022-12-28T14:24:17.154Z,9.10
2022-12-28T14:26:59.638Z,9.12
2022-12-28T14:29:34.447Z,9.11
2022-12-28T14:32:14.198Z,9.14
2022-12-28T14:34:49.763Z,8.92
2022-12-28T14:37:38.016Z,8.82
2022-12-28T14:40:26.924Z,8.90
2022-12-28T14:43:09.666Z,8.97
2022-12-28T14:46:06.692Z,9.01
2022-12-28T14:48:40.803Z,9.07
2022-12-28T14:51:17.498Z,8.99
2022-12-28T14:54:22.206Z,9.03
2022-12-28T14:57:03.980Z,9.07
2022-12-28T14:59:43.367Z,9.15
2022-12-28T15:02:33.838Z,9.11
2022-12-28T15:05:52.789Z,9.05
2022-12-28T15:08:27.839Z,9.07
2022-12-28T15:11:01.211Z,9.02
2022-12-28T15:13:33.368Z,9.01
2022-12-28T15:16:06.839Z,8.92
2022-12-28T15:18:46.979Z,9.06
2022-12-28T15:21:22.528Z,8.98
2022-12-28T15:23:56.734Z,8.95
2022-12-28T15:26:28.835Z,9.01
2022-12-28T15:29:05.614Z,9.04
2022-12-28T15:31:37.737Z,9.01
2022-12-28T15:34:09.806Z,8.96
2022-12-28T15:36:45.650Z,8.90
2022-12-28T15:39:17.667Z,9.02
2022-12-28T15:41:50.421Z,8.97
2022-12-28T15:44:22.397Z,9.04
2022-12-28T15:46:54.449Z,8.93
2022-12-28T15:49:26.770Z,8.96
2022-12-28T15:51:59.856Z,8.92
2022-12-28T15:54:31.997Z,8.86
2022-12-28T15:57:04.289Z,8.89
2022-12-28T15:59:36.510Z,8.93
2022-12-28T16:02:11.847Z,8.90
2022-12-28T16:04:44.195Z,8.85
2022-12-28T16:07:16.783Z,8.92
2022-12-28T16:09:48.934Z,8.91
2022-12-28T16:12:20.931Z,8.99
2022-12-28T16:14:52.946Z,8.97
2022-12-28T16:17:24.923Z,9.06
2022-12-28T16:19:57.044Z,9.07
2022-12-28T16:22:29.106Z,9.09
2022-12-28T16:25:01.099Z,9.09
2022-12-28T16:27:33.526Z,9.00
2022-12-28T16:30:06.557Z,9.01
2022-12-28T16:32:38.545Z,9.05
2022-12-28T16:35:10.537Z,9.01
2022-12-28T16:37:42.618Z,8.99
2022-12-28T16:40:14.705Z,8.92
2022-12-28T16:42:46.717Z,8.96
2022-12-28T16:45:18.676Z,8.89
2022-12-28T16:47:50.659Z,8.90
2022-12-28T16:50:22.822Z,8.88
2022-12-28T16:52:54.946Z,9.00
2022-12-28T16:55:28.891Z,8.99
2022-12-28T16:58:00.955Z,8.79
2022-12-28T17:00:32.982Z,8.83
2022-12-28T17:03:05.022Z,8.87
2022-12-28T17:05:37.970Z,8.95
2022-12-28T17:08:09.926Z,8.91
2022-12-28T17:10:42.757Z,8.92
2022-12-28T17:13:16.398Z,8.91
2022-12-28T17:15:48.928Z,8.95
2022-12-28T17:18:21.093Z,8.88
2022-12-28T17:20:53.035Z,8.81
2022-12-28T17:23:25.340Z,8.76
2022-12-28T17:25:57.319Z,8.75
2022-12-28T17:28:29.624Z,8.85
2022-12-28T17:31:11.811Z,8.75
2022-12-28T17:33:54.371Z,8.77
2022-12-28T17:36:27.027Z,8.84
2022-12-28T17:38:59.114Z,8.76
2022-12-28T17:41:31.221Z,8.82
2022-12-28T17:44:03.733Z,8.77
2022-12-28T17:46:40.854Z,8.81
2022-12-28T17:49:15.289Z,8.71
2022-12-28T17:51:48.621Z,8.78
2022-12-28T17:54:20.686Z,8.85
2022-12-28T17:56:53.194Z,8.84
2022-12-28T17:59:25.380Z,8.87
2022-12-28T18:01:58.358Z,8.80
2022-12-28T18:04:31.306Z,8.75
2022-12-28T18:07:03.937Z,8.78
2022-12-28T18:09:35.936Z,8.79
2022-12-28T18:12:08.118Z,8.88
2022-12-28T18:14:40.130Z,8.87
2022-12-28T18:17:12.161Z,8.97
2022-12-28T18:19:44.154Z,9.01
2022-12-28T18:22:16.491Z,9.01
2022-12-28T18:24:48.984Z,9.01
2022-12-28T18:27:21.079Z,9.01
2022-12-28T18:30:02.213Z,8.98
2022-12-28T18:32:34.212Z,8.96
2022-12-28T18:35:07.404Z,8.89
2022-12-28T18:37:39.406Z,8.89
2022-12-28T18:40:11.570Z,8.89
2022-12-28T18:42:43.512Z,8.81
2022-12-28T18:45:15.831Z,8.83
2022-12-28T18:47:47.796Z,8.71
2022-12-28T18:50:19.756Z,8.73
2022-12-28T18:52:51.867Z,8.61
2022-12-28T18:55:23.992Z,8.59
2022-12-28T18:57:56.000Z,8.51
2022-12-28T19:00:28.029Z,8.49
2022-12-28T19:03:00.301Z,8.44
2022-12-28T19:05:32.443Z,8.42
2022-12-28T19:08:04.794Z,8.45
2022-12-28T19:10:36.793Z,8.35
2022-12-28T19:13:08.791Z,8.39
2022-12-28T19:15:40.853Z,8.38
2022-12-28T19:18:13.253Z,8.32
2022-12-28T19:20:45.329Z,8.28
2022-12-28T19:23:17.411Z,8.34
2022-12-28T19:25:49.725Z,8.28
2022-12-28T19:28:21.737Z,8.25
2022-12-28T19:30:55.239Z,8.18
2022-12-28T19:33:30.358Z,8.23
2022-12-28T19:36:03.410Z,8.16
2022-12-28T19:38:35.411Z,8.13
2022-12-28T19:41:16.315Z,8.24
2022-12-28T19:43:48.392Z,8.22
2022-12-28T19:46:24.819Z,8.13
2022-12-28T19:48:58.631Z,8.15
2022-12-28T19:51:32.837Z,8.17
2022-12-28T19:54:05.333Z,8.11
2022-12-28T19:56:37.366Z,8.15
2022-12-28T19:59:09.393Z,8.20
2022-12-28T20:01:41.554Z,8.20
2022-12-28T20:04:14.645Z,8.19
2022-12-28T20:06:46.809Z,8.21
2022-12-28T20:09:18.801Z,8.14
2022-12-28T20:11:50.770Z,8.09
2022-12-28T20:14:25.170Z,8.18
2022-12-28T20:16:58.847Z,8.05
2022-12-28T20:19:30.960Z,7.99
2022-12-28T20:22:02.929Z,8.07
2022-12-28T20:24:34.890Z,8.07
2022-12-28T20:27:07.225Z,8.10
2022-12-28T20:29:39.606Z,8.04
2022-12-28T20:32:11.565Z,7.99
2022-12-28T20:34:43.581Z,8.05
2022-12-28T20:37:15.569Z,8.09
2022-12-28T20:39:47.577Z,8.24
2022-12-28T20:42:37.925Z,8.11
2022-12-28T20:45:09.914Z,8.19
2022-12-28T20:47:41.874Z,8.14
2022-12-28T20:50:15.732Z,8.15
2022-12-28T20:52:47.669Z,8.08
2022-12-28T20:55:19.817Z,8.19
2022-12-28T20:57:53.551Z,8.24
2022-12-28T21:00:25.893Z,8.15
2022-12-28T21:02:57.986Z,8.21
2022-12-28T21:05:30.017Z,8.23
2022-12-28T21:08:01.949Z,8.15
2022-12-28T21:10:33.979Z,8.24
2022-12-28T21:13:05.972Z,8.22
2022-12-28T21:15:41.147Z,8.32
2022-12-28T21:18:13.136Z,8.30
2022-12-28T21:20:47.361Z,8.34
2022-12-28T21:23:19.456Z,8.35
2022-12-28T21:25:51.563Z,8.36
2022-12-28T21:28:23.686Z,8.40
2022-12-28T21:30:57.349Z,8.47
2022-12-28T21:33:29.382Z,8.51
2022-12-28T21:36:04.695Z,8.50
2022-12-28T21:38:39.111Z,8.47
2022-12-28T21:41:39.960Z,8.42
2022-12-28T21:44:13.801Z,8.42
2022-12-28T21:46:48.524Z,8.33
2022-12-28T21:49:21.362Z,8.38
2022-12-28T21:51:53.392Z,8.50
2022-12-28T21:54:26.319Z,8.50
2022-12-28T21:56:58.442Z,8.56
2022-12-28T21:59:33.521Z,8.52
2022-12-28T22:02:38.472Z,8.57
2022-12-28T22:05:29.207Z,8.66
2022-12-28T22:08:21.623Z,8.75
2022-12-28T22:11:15.485Z,8.72
2022-12-28T22:13:47.569Z,8.63
2022-12-28T22:16:19.767Z,8.60
2022-12-28T22:19:07.206Z,8.63
2022-12-28T22:21:39.218Z,8.75
2022-12-28T22:24:11.329Z,8.83
2022-12-28T22:26:43.338Z,8.80
2022-12-28T22:29:15.623Z,8.83
2022-12-28T22:31:47.951Z,8.80
2022-12-28T22:34:20.035Z,8.86
2022-12-28T22:36:52.024Z,8.81
2022-12-28T22:39:24.402Z,8.90
2022-12-28T22:41:56.404Z,8.94
2022-12-28T22:44:28.485Z,9.00
2022-12-28T22:47:00.462Z,9.05
2022-12-28T22:49:32.466Z,9.04
2022-12-28T22:52:04.709Z,9.07
2022-12-28T22:54:36.756Z,9.21
2022-12-28T22:57:08.725Z,9.16
2022-12-28T22:59:40.776Z,9.12
2022-12-28T23:02:12.895Z,9.17
2022-12-28T23:04:45.062Z,9.03
2022-12-28T23:07:17.173Z,9.04
2022-12-28T23:09:49.212Z,9.11
2022-12-28T23:12:21.182Z,9.25
2022-12-28T23:15:11.825Z,9.26
2022-12-28T23:17:44.249Z,9.19
2022-12-28T23:20:39.899Z,9.20
2022-12-28T23:23:30.155Z,9.19
2022-12-28T23:26:20.428Z,9.33
2022-12-28T23:28:55.839Z,9.31
2022-12-28T23:31:28.130Z,9.38
2022-12-28T23:34:00.275Z,9.44
2022-12-28T23:36:34.818Z,9.50
2022-12-28T23:39:06.766Z,9.48
2022-12-28T23:41:50.644Z,9.53
2022-12-28T23:44:25.190Z,9.57
2022-12-28T23:46:59.628Z,9.54
2022-12-28T23:49:31.922Z,9.62
2022-12-28T23:52:04.033Z,9.65
2022-12-28T23:54:36.207Z,9.66
2022-12-28T23:57:08.185Z,9.61
2022-12-28T23:59:40.140Z,9.64
